Time;durP1;ratioP1;P1;durP2;ratioP2;P2;SDS_P1;SDS_P2;PMS_P1;PMS_P2;Temp;Humidity;BMP_temperature;BMP_pressure;BME280_temperature;BME280_humidity;BME280_pressure;Samples;Min_cycle;Max_cycle;Signal;HPM_P1;HPM_P2
2021/05/04 00:02:03;;;;;;;4.78;4.38;;;8.00;58.40;;;;;;5103396;28;20211;-81
2021/05/04 00:04:30;;;;;;;5.15;4.75;;;8.10;58.80;;;;;;5092342;28;20563;-81
2021/05/04 00:06:57;;;;;;;5.07;4.68;;;8.00;58.60;;;;;;5093276;28;20203;-81
2021/05/04 00:09:23;;;;;;;7.03;5.07;;;8.00;58.50;;;;;;5104372;28;20207;-81
2021/05/04 00:11:50;;;;;;;5.68;5.18;;;8.10;58.50;;;;;;5095505;28;20194;-80
2021/05/04 00:14:16;;;;;;;5.38;4.80;;;8.10;59.00;;;;;;5112183;28;20209;-81
2021/05/04 00:16:43;;;;;;;5.90;5.30;;;8.10;58.80;;;;;;5109683;28;20303;-81
2021/05/04 00:19:09;;;;;;;5.63;5.13;;;8.10;58.70;;;;;;5094806;28;20201;-81
2021/05/04 00:21:37;;;;;;;5.50;5.10;;;8.00;58.80;;;;;;5098158;28;20194;-80
2021/05/04 00:24:04;;;;;;;5.00;4.60;;;8.00;59.20;;;;;;5092117;28;20347;-81
2021/05/04 00:26:31;;;;;;;5.35;4.88;;;8.00;59.00;;;;;;5103870;28;20657;-80
2021/05/04 00:28:57;;;;;;;5.95;5.45;;;8.00;59.30;;;;;;5108776;28;20297;-80
2021/05/04 00:31:24;;;;;;;5.60;4.88;;;8.10;59.10;;;;;;5091622;28;20671;-80
2021/05/04 00:33:52;;;;;;;5.32;4.45;;;8.10;59.40;;;;;;5112186;28;20198;-81
2021/05/04 00:36:18;;;;;;;5.40;4.90;;;8.20;59.20;;;;;;5099388;28;20211;-80
2021/05/04 00:38:45;;;;;;;5.38;4.88;;;8.20;58.70;;;;;;5100349;28;20282;-80
2021/05/04 00:41:12;;;;;;;4.75;4.35;;;8.30;58.50;;;;;;5071112;28;20241;-81
2021/05/04 00:43:38;;;;;;;5.07;4.55;;;8.30;58.70;;;;;;5103218;28;20255;-80
2021/05/04 00:46:05;;;;;;;5.97;4.55;;;8.30;58.40;;;;;;5100522;28;20205;-80
2021/05/04 00:48:31;;;;;;;6.18;5.57;;;8.30;58.40;;;;;;5100851;28;20575;-80
2021/05/04 00:50:58;;;;;;;5.65;4.50;;;8.10;59.00;;;;;;5104857;28;20214;-80
2021/05/04 00:53:25;;;;;;;5.85;5.30;;;8.20;59.40;;;;;;5106275;28;20206;-80
2021/05/04 00:55:52;;;;;;;5.72;5.22;;;8.00;59.30;;;;;;5108201;28;20260;-79
2021/05/04 00:58:19;;;;;;;5.10;4.68;;;7.90;59.70;;;;;;5102551;28;20293;-79
2021/05/04 01:00:46;;;;;;;5.30;4.82;;;7.90;59.90;;;;;;5100431;28;20198;-79
2021/05/04 01:03:15;;;;;;;4.78;4.38;;;8.00;59.50;;;;;;5105494;28;20218;-79
2021/05/04 01:05:42;;;;;;;6.80;5.38;;;8.00;59.40;;;;;;5092267;28;20688;-80
2021/05/04 01:08:10;;;;;;;6.28;5.78;;;8.00;59.30;;;;;;5091113;28;20228;-80
2021/05/04 01:10:38;;;;;;;7.85;5.30;;;8.00;59.20;;;;;;5100975;28;20572;-80
2021/05/04 01:13:07;;;;;;;6.97;6.38;;;7.80;59.60;;;;;;5090592;28;20202;-79
2021/05/04 01:15:34;;;;;;;6.90;6.05;;;7.70;61.00;;;;;;5090412;28;20214;-80
2021/05/04 01:18:02;;;;;;;5.00;4.57;;;7.90;60.60;;;;;;5087864;28;20198;-80
2021/05/04 01:20:31;;;;;;;5.90;5.30;;;8.00;59.80;;;;;;5083262;28;20195;-79
2021/05/04 01:22:59;;;;;;;5.80;4.88;;;8.10;59.70;;;;;;5090602;28;20714;-80
2021/05/04 01:25:27;;;;;;;5.65;4.63;;;8.10;59.30;;;;;;5098770;28;20206;-80
2021/05/04 01:27:54;;;;;;;5.47;5.00;;;8.10;59.40;;;;;;5109637;28;20293;-80
2021/05/04 01:30:23;;;;;;;5.95;5.40;;;8.20;59.20;;;;;;5091299;28;20280;-80
2021/05/04 01:32:51;;;;;;;5.18;4.75;;;8.10;59.30;;;;;;5101961;28;20868;-80
2021/05/04 01:35:22;;;;;;;5.35;4.85;;;8.10;59.90;;;;;;5090250;28;20195;-80
2021/05/04 01:37:50;;;;;;;4.70;4.30;;;8.10;59.50;;;;;;5097437;28;20245;-80
2021/05/04 01:40:20;;;;;;;6.90;4.97;;;8.10;59.90;;;;;;5109031;28;20204;-80
2021/05/04 01:42:47;;;;;;;9.10;4.82;;;8.00;59.40;;;;;;5090658;28;20598;-80
2021/05/04 01:45:16;;;;;;;7.07;4.45;;;8.00;59.50;;;;;;5090244;28;20198;-80
2021/05/04 01:47:44;;;;;;;4.97;4.57;;;8.00;59.70;;;;;;5078090;28;20222;-80
2021/05/04 01:50:13;;;;;;;5.00;4.60;;;8.10;59.50;;;;;;5085763;28;20312;-79
2021/05/04 01:52:41;;;;;;;6.45;5.75;;;8.10;59.50;;;;;;5086765;28;20195;-80
2021/05/04 01:55:10;;;;;;;5.53;5.03;;;8.10;59.30;;;;;;5087214;28;20232;-80
2021/05/04 01:57:39;;;;;;;8.05;5.63;;;8.10;59.70;;;;;;5087658;28;20202;-79
2021/05/04 02:00:09;;;;;;;5.32;4.90;;;8.00;59.40;;;;;;5069286;28;20202;-79
2021/05/04 02:02:37;;;;;;;5.80;5.30;;;8.00;59.50;;;;;;5092534;28;20668;-80
2021/05/04 02:05:07;;;;;;;5.35;4.95;;;8.00;59.80;;;;;;5094587;28;20210;-80
2021/05/04 02:07:34;;;;;;;5.07;4.57;;;8.00;59.60;;;;;;5112021;28;20281;-79
2021/05/04 02:10:01;;;;;;;5.63;5.07;;;7.90;59.40;;;;;;5101669;28;20237;-79
2021/05/04 02:12:35;;;;;;;5.70;5.20;;;7.80;59.60;;;;;;5095192;28;20203;-80
2021/05/04 02:15:05;;;;;;;4.85;4.45;;;7.80;59.70;;;;;;5095112;28;20730;-80
2021/05/04 02:17:32;;;;;;;6.63;4.95;;;7.90;59.50;;;;;;5100014;28;20222;-80
2021/05/04 02:19:59;;;;;;;4.82;4.43;;;7.90;59.40;;;;;;5113769;28;20202;-80
2021/05/04 02:22:26;;;;;;;5.13;4.68;;;7.90;59.60;;;;;;5095726;28;20195;-80
2021/05/04 02:24:52;;;;;;;4.70;4.30;;;7.80;60.20;;;;;;5094191;28;20195;-80
2021/05/04 02:27:19;;;;;;;4.97;4.47;;;7.80;60.00;;;;;;5110876;28;20202;-80
2021/05/04 02:29:45;;;;;;;4.60;4.20;;;7.80;60.00;;;;;;5094060;28;20195;-80
2021/05/04 02:32:12;;;;;;;5.50;5.00;;;7.80;61.30;;;;;;5093564;28;20969;-80
2021/05/04 02:34:39;;;;;;;6.18;5.57;;;7.80;61.40;;;;;;5094803;28;20206;-80
2021/05/04 02:37:06;;;;;;;5.22;4.72;;;7.80;60.80;;;;;;5094433;28;20225;-80
2021/05/04 02:39:32;;;;;;;5.43;4.50;;;7.80;60.60;;;;;;5113915;28;20876;-80
2021/05/04 02:41:58;;;;;;;4.80;4.40;;;7.80;60.20;;;;;;5100680;28;20202;-80
2021/05/04 02:44:25;;;;;;;7.20;4.78;;;7.80;59.70;;;;;;5093465;28;20206;-80
2021/05/04 02:46:51;;;;;;;4.07;3.75;;;7.90;59.70;;;;;;5104892;28;20570;-79
2021/05/04 02:49:18;;;;;;;4.95;4.45;;;8.00;60.00;;;;;;5113124;28;20194;-79
2021/05/04 02:51:45;;;;;;;7.63;4.85;;;8.00;59.30;;;;;;5102795;28;20212;-80
2021/05/04 02:54:11;;;;;;;5.43;4.97;;;8.00;60.00;;;;;;5099597;28;20194;-80
2021/05/04 02:56:38;;;;;;;5.43;4.68;;;8.00;59.80;;;;;;5113944;28;20218;-80
2021/05/04 02:59:04;;;;;;;4.80;4.40;;;8.10;59.60;;;;;;5094023;28;20230;-80
2021/05/04 03:01:31;;;;;;;5.07;4.65;;;8.10;59.10;;;;;;5095136;28;20210;-80
2021/05/04 03:03:57;;;;;;;4.28;3.90;;;8.20;59.30;;;;;;5100237;28;20198;-79
2021/05/04 03:06:24;;;;;;;4.65;4.25;;;8.30;59.40;;;;;;5113697;28;20190;-80
2021/05/04 03:08:51;;;;;;;5.82;4.68;;;8.30;59.10;;;;;;5095616;28;20575;-80
2021/05/04 03:11:17;;;;;;;5.18;4.68;;;8.30;58.90;;;;;;5094735;28;20195;-80
2021/05/04 03:13:44;;;;;;;4.78;4.38;;;8.40;59.00;;;;;;5092529;28;20198;-80
2021/05/04 03:16:10;;;;;;;5.07;4.30;;;8.20;58.90;;;;;;5095584;28;20226;-79
2021/05/04 03:18:37;;;;;;;4.43;4.03;;;8.10;58.70;;;;;;5099006;28;20288;-80
2021/05/04 03:21:03;;;;;;;4.65;4.00;;;8.10;59.00;;;;;;5097170;28;20530;-80
2021/05/04 03:23:31;;;;;;;4.20;3.90;;;8.00;59.00;;;;;;5113172;28;20324;-80
2021/05/04 03:25:57;;;;;;;4.32;3.92;;;8.00;59.00;;;;;;5109883;28;20672;-80
2021/05/04 03:28:24;;;;;;;4.47;3.70;;;8.10;59.00;;;;;;5093099;28;21062;-80
2021/05/04 03:30:50;;;;;;;6.15;4.45;;;8.10;58.80;;;;;;5109045;28;20198;-80
2021/05/04 03:33:16;;;;;;;4.22;3.88;;;8.10;59.10;;;;;;5093040;28;20670;-80
2021/05/04 03:35:43;;;;;;;4.05;3.75;;;8.10;58.90;;;;;;5093852;28;20303;-80
2021/05/04 03:38:10;;;;;;;4.18;3.80;;;8.10;58.80;;;;;;5103686;28;20655;-80
2021/05/04 03:40:37;;;;;;;4.68;4.30;;;8.20;58.80;;;;;;5111433;28;20248;-80
2021/05/04 03:43:04;;;;;;;4.07;3.78;;;8.30;58.70;;;;;;5082268;28;20210;-80
2021/05/04 03:45:31;;;;;;;4.28;3.70;;;8.20;58.10;;;;;;5092790;28;20203;-79
2021/05/04 03:47:58;;;;;;;4.10;3.70;;;8.10;58.50;;;;;;5111166;28;20600;-80
2021/05/04 03:50:27;;;;;;;4.28;3.75;;;8.30;58.70;;;;;;5112099;28;20234;-80
2021/05/04 03:52:59;;;;;;;3.60;3.30;;;8.30;58.70;;;;;;5093384;28;20300;-80
2021/05/04 03:55:25;;;;;;;4.75;4.35;;;8.30;58.00;;;;;;5103258;28;20229;-80
2021/05/04 03:57:53;;;;;;;3.55;3.25;;;8.10;57.90;;;;;;5103975;28;20288;-80
2021/05/04 04:00:21;;;;;;;4.00;3.55;;;8.30;58.40;;;;;;5091619;28;20252;-80
2021/05/04 04:02:47;;;;;;;6.05;4.10;;;8.30;58.30;;;;;;5100950;28;20221;-79
2021/05/04 04:05:14;;;;;;;4.72;3.70;;;8.40;58.00;;;;;;5112330;28;20678;-80
2021/05/04 04:07:40;;;;;;;4.88;4.25;;;8.40;58.00;;;;;;5094485;28;20209;-80
2021/05/04 04:10:08;;;;;;;3.08;2.88;;;8.40;58.00;;;;;;5100614;28;20205;-80
2021/05/04 04:12:35;;;;;;;4.00;3.60;;;8.30;57.70;;;;;;5100803;28;20572;-80
2021/05/04 04:15:03;;;;;;;3.97;3.60;;;8.40;58.30;;;;;;5102755;28;20202;-80
2021/05/04 04:17:30;;;;;;;4.07;3.33;;;8.50;58.10;;;;;;5095888;28;20233;-79
2021/05/04 04:19:56;;;;;;;3.25;2.95;;;8.30;57.50;;;;;;5100522;28;20202;-79
2021/05/04 04:22:24;;;;;;;3.47;2.85;;;8.40;57.80;;;;;;5096884;28;20195;-79
2021/05/04 04:24:53;;;;;;;4.50;3.63;;;8.20;57.40;;;;;;5092094;28;20210;-79
2021/05/04 04:27:20;;;;;;;3.90;3.45;;;8.30;57.80;;;;;;5104472;28;20190;-79
2021/05/04 04:29:46;;;;;;;5.22;3.92;;;8.40;58.10;;;;;;5107204;28;20203;-80
2021/05/04 04:32:14;;;;;;;4.00;3.60;;;8.40;57.70;;;;;;5088987;28;20217;-80
2021/05/04 04:34:40;;;;;;;3.80;3.50;;;8.60;57.60;;;;;;5091472;28;20199;-80
2021/05/04 04:37:07;;;;;;;4.47;3.55;;;8.60;57.60;;;;;;5094656;28;20219;-79
2021/05/04 04:39:33;;;;;;;4.93;3.20;;;8.50;57.50;;;;;;5107332;28;20735;-80
2021/05/04 04:41:59;;;;;;;3.65;3.35;;;8.60;57.40;;;;;;5108872;28;20202;-80
2021/05/04 04:44:27;;;;;;;4.18;3.45;;;8.60;57.80;;;;;;5091737;28;20203;-79
2021/05/04 04:46:53;;;;;;;3.38;3.03;;;8.60;57.70;;;;;;5091236;28;20191;-80
2021/05/04 04:49:20;;;;;;;4.78;3.60;;;8.70;57.60;;;;;;5090444;28;20232;-80
2021/05/04 04:51:48;;;;;;;4.80;3.55;;;8.80;57.60;;;;;;5091268;28;20207;-80
2021/05/04 04:54:15;;;;;;;3.13;2.92;;;8.80;57.40;;;;;;5095075;28;20557;-80
2021/05/04 04:56:41;;;;;;;3.75;3.45;;;8.80;57.60;;;;;;5111918;28;20657;-80
2021/05/04 04:59:08;;;;;;;5.00;4.05;;;8.90;57.60;;;;;;5111121;28;20236;-79
2021/05/04 05:01:35;;;;;;;4.10;3.20;;;8.80;57.30;;;;;;5102458;28;20328;-79
2021/05/04 05:04:02;;;;;;;3.58;3.03;;;8.70;57.00;;;;;;5088924;28;20727;-80
2021/05/04 05:06:29;;;;;;;3.80;3.50;;;8.80;57.50;;;;;;5095351;28;20193;-79
2021/05/04 05:08:55;;;;;;;3.30;3.00;;;8.80;57.50;;;;;;5094775;28;20259;-79
2021/05/04 05:11:22;;;;;;;5.13;3.78;;;8.70;57.40;;;;;;5089900;28;20292;-79
2021/05/04 05:13:49;;;;;;;3.70;3.40;;;8.60;57.40;;;;;;5090160;28;20241;-79
2021/05/04 05:16:18;;;;;;;4.15;3.40;;;8.70;57.60;;;;;;5090448;28;20226;-79
2021/05/04 05:18:44;;;;;;;3.28;3.00;;;8.80;57.50;;;;;;5108135;28;20259;-79
2021/05/04 05:21:14;;;;;;;3.88;3.53;;;8.80;57.40;;;;;;5102124;28;20232;-79
2021/05/04 05:23:42;;;;;;;7.68;3.17;;;8.90;57.80;;;;;;5093473;28;20290;-80
2021/05/04 05:26:09;;;;;;;3.28;2.97;;;8.90;57.80;;;;;;5089061;28;20199;-79
2021/05/04 05:28:38;;;;;;;5.07;4.00;;;9.00;57.20;;;;;;5067553;28;20889;-79
2021/05/04 05:31:04;;;;;;;5.18;3.55;;;9.00;57.50;;;;;;5069429;28;20598;-80
2021/05/04 05:33:31;;;;;;;3.35;3.10;;;9.10;57.20;;;;;;5068767;28;20226;-80
2021/05/04 05:35:57;;;;;;;4.93;3.88;;;9.20;57.00;;;;;;5069081;28;20223;-80
2021/05/04 05:38:24;;;;;;;4.28;3.88;;;9.40;57.20;;;;;;5094250;28;21083;-79
2021/05/04 05:40:51;;;;;;;3.40;3.20;;;9.40;56.90;;;;;;5105709;28;20246;-80
2021/05/04 05:43:18;;;;;;;3.53;3.22;;;9.40;57.30;;;;;;5095757;28;20210;-80
2021/05/04 05:45:44;;;;;;;3.80;3.50;;;9.50;57.70;;;;;;5088120;28;20226;-80
2021/05/04 05:48:11;;;;;;;5.35;3.45;;;9.50;56.80;;;;;;5090782;28;20609;-80
2021/05/04 05:50:37;;;;;;;4.07;3.63;;;9.50;56.80;;;;;;5100849;28;20202;-80
2021/05/04 05:53:04;;;;;;;4.00;3.58;;;9.60;56.80;;;;;;5109242;28;20213;-80
2021/05/04 05:55:31;;;;;;;3.63;3.30;;;9.90;56.80;;;;;;5098949;28;20678;-80
2021/05/04 05:57:59;;;;;;;5.80;3.58;;;9.90;56.20;;;;;;5096360;28;20244;-80
2021/05/04 06:00:26;;;;;;;3.55;3.22;;;9.90;56.10;;;;;;5094253;28;20666;-80
2021/05/04 06:02:52;;;;;;;3.45;3.15;;;10.00;55.50;;;;;;5098230;28;20221;-80
2021/05/04 06:05:19;;;;;;;3.28;2.97;;;10.10;55.50;;;;;;5089586;28;20241;-79
2021/05/04 06:07:45;;;;;;;4.07;3.33;;;10.20;55.30;;;;;;5088857;28;20612;-78
2021/05/04 06:10:13;;;;;;;4.40;3.63;;;10.00;54.70;;;;;;5102289;28;20205;-79
2021/05/04 06:12:39;;;;;;;4.43;3.05;;;10.20;55.30;;;;;;5094795;28;20226;-79
2021/05/04 06:15:08;;;;;;;5.40;3.47;;;10.30;55.40;;;;;;5100705;28;20683;-80
2021/05/04 06:17:34;;;;;;;3.97;3.67;;;10.40;55.10;;;;;;5109699;28;20240;-79
2021/05/04 06:20:01;;;;;;;3.45;3.15;;;10.50;55.10;;;;;;5097673;28;20300;-79
2021/05/04 06:22:27;;;;;;;3.53;3.33;;;10.50;54.70;;;;;;5088001;28;20579;-78
2021/05/04 06:24:54;;;;;;;3.30;3.10;;;10.50;54.30;;;;;;5097202;28;20193;-79
2021/05/04 06:27:20;;;;;;;4.00;3.70;;;10.60;54.60;;;;;;5089198;28;20196;-79
2021/05/04 06:29:46;;;;;;;3.88;3.45;;;10.60;54.20;;;;;;5096644;28;20555;-79
2021/05/04 06:32:15;;;;;;;4.15;2.95;;;10.80;53.90;;;;;;5109423;28;20679;-79
2021/05/04 06:34:42;;;;;;;2.60;2.30;;;10.90;53.60;;;;;;5095583;28;20304;-79
2021/05/04 06:37:08;;;;;;;3.77;3.30;;;11.00;54.90;;;;;;5092802;28;20688;-79
2021/05/04 06:39:35;;;;;;;3.10;2.80;;;11.20;54.10;;;;;;5093597;28;20608;-79
2021/05/04 06:42:02;;;;;;;3.83;3.50;;;11.30;54.00;;;;;;5108856;28;20809;-79
2021/05/04 06:44:28;;;;;;;5.07;2.90;;;11.30;54.10;;;;;;5105015;28;20616;-79
2021/05/04 06:46:54;;;;;;;3.87;3.57;;;11.40;53.80;;;;;;5089077;28;21168;-79
2021/05/04 06:49:22;;;;;;;3.53;3.23;;;11.50;52.80;;;;;;5094621;28;20647;-78
2021/05/04 06:51:48;;;;;;;3.03;2.83;;;11.50;52.30;;;;;;5112016;28;20603;-79
2021/05/04 06:54:14;;;;;;;4.13;2.97;;;11.60;52.50;;;;;;5111049;28;21163;-79
2021/05/04 06:56:41;;;;;;;3.33;3.03;;;11.70;51.70;;;;;;5093079;28;20662;-79
2021/05/04 06:59:07;;;;;;;2.70;2.50;;;11.70;51.80;;;;;;5092323;28;20652;-79
2021/05/04 07:01:34;;;;;;;2.80;2.60;;;11.70;51.80;;;;;;5105186;28;20697;-79
2021/05/04 07:04:01;;;;;;;6.57;2.77;;;11.70;51.50;;;;;;5098647;28;20647;-79
2021/05/04 07:06:28;;;;;;;2.93;2.73;;;11.70;51.50;;;;;;5092368;28;20991;-79
2021/05/04 07:08:54;;;;;;;4.17;2.90;;;11.80;51.60;;;;;;5101052;28;20659;-79
2021/05/04 07:11:21;;;;;;;3.43;2.73;;;11.80;52.70;;;;;;5092197;28;20624;-79
2021/05/04 07:13:48;;;;;;;3.73;3.00;;;11.90;52.50;;;;;;5092936;28;20624;-79
2021/05/04 07:16:14;;;;;;;2.20;2.10;;;12.10;51.90;;;;;;5108458;28;20635;-79
2021/05/04 07:18:43;;;;;;;3.20;2.70;;;12.20;51.90;;;;;;5096034;28;20609;-79
2021/05/04 07:21:10;;;;;;;2.93;2.63;;;12.20;51.50;;;;;;5103987;28;20608;-79
2021/05/04 07:23:37;;;;;;;2.57;2.37;;;12.40;51.70;;;;;;5106303;28;21200;-80
2021/05/04 07:26:05;;;;;;;2.70;2.50;;;12.50;51.20;;;;;;5093650;28;20628;-79
2021/05/04 07:28:32;;;;;;;2.67;2.47;;;12.70;51.40;;;;;;5099012;28;20620;-80
2021/05/04 07:30:58;;;;;;;4.30;2.57;;;12.70;50.80;;;;;;5108128;28;20621;-79
2021/05/04 07:33:25;;;;;;;2.77;2.57;;;12.80;51.40;;;;;;5103163;28;21167;-78
2021/05/04 07:35:51;;;;;;;4.97;4.67;;;12.90;50.70;;;;;;5113061;28;20622;-78
2021/05/04 07:38:18;;;;;;;2.73;2.40;;;12.90;50.10;;;;;;5093102;28;20624;-79
2021/05/04 07:40:45;;;;;;;5.40;2.53;;;13.20;49.70;;;;;;5102874;28;21171;-80
2021/05/04 07:43:12;;;;;;;2.80;2.60;;;13.40;49.30;;;;;;5098411;28;20601;-79
2021/05/04 07:45:39;;;;;;;2.00;1.90;;;13.60;49.60;;;;;;5101882;28;20966;-79
2021/05/04 07:48:09;;;;;;;2.50;2.30;;;13.80;49.30;;;;;;5095808;28;20675;-80
2021/05/04 07:50:36;;;;;;;3.47;1.93;;;13.90;48.40;;;;;;5100940;28;20626;-79
2021/05/04 07:53:03;;;;;;;6.17;2.37;;;14.20;47.60;;;;;;5100406;28;20624;-80
2021/05/04 07:55:32;;;;;;;2.47;2.30;;;14.20;48.00;;;;;;5094618;28;20631;-80
2021/05/04 07:57:59;;;;;;;3.00;2.53;;;14.20;47.70;;;;;;5109043;28;20681;-79
2021/05/04 08:00:26;;;;;;;4.40;2.37;;;14.40;47.30;;;;;;5094168;28;20614;-78
2021/05/04 08:02:53;;;;;;;3.13;2.77;;;14.50;46.50;;;;;;5089539;28;20637;-77
2021/05/04 08:05:19;;;;;;;4.67;2.90;;;14.50;46.50;;;;;;5100476;28;20607;-78
2021/05/04 08:07:45;;;;;;;6.90;2.83;;;14.60;46.50;;;;;;5094587;28;20622;-78
2021/05/04 08:10:12;;;;;;;2.83;1.97;;;14.60;46.20;;;;;;5095834;28;20982;-78
2021/05/04 08:12:39;;;;;;;3.50;2.57;;;14.80;47.20;;;;;;5106493;28;20637;-78
2021/05/04 08:15:12;;;;;;;2.40;2.20;;;14.80;46.10;;;;;;5101735;28;20617;-79
2021/05/04 08:17:41;;;;;;;2.63;2.43;;;14.80;46.30;;;;;;5092062;28;20645;-78
2021/05/04 08:20:08;;;;;;;2.40;2.20;;;14.70;45.50;;;;;;5093525;28;20614;-78
2021/05/04 08:22:36;;;;;;;3.40;2.57;;;14.70;45.30;;;;;;5091746;28;21174;-79
2021/05/04 08:25:04;;;;;;;2.97;2.20;;;14.70;46.00;;;;;;5092773;28;20622;-78
2021/05/04 08:27:31;;;;;;;2.87;2.20;;;14.70;45.90;;;;;;5092364;28;20606;-79
2021/05/04 08:29:57;;;;;;;3.40;2.73;;;14.70;45.40;;;;;;5091987;28;20736;-81
2021/05/04 08:32:25;;;;;;;2.33;2.13;;;14.80;45.80;;;;;;5091144;28;20615;-79
2021/05/04 08:34:52;;;;;;;2.57;2.37;;;14.80;46.20;;;;;;5095015;28;21195;-79
2021/05/04 08:37:21;;;;;;;3.83;2.40;;;15.00;46.10;;;;;;5091712;28;20636;-79
2021/05/04 08:39:48;;;;;;;2.97;2.77;;;15.00;45.80;;;;;;5099255;28;20626;-78
2021/05/04 08:42:17;;;;;;;2.20;2.07;;;15.10;45.50;;;;;;5091685;28;20949;-79
2021/05/04 08:44:49;;;;;;;3.10;2.20;;;15.30;45.50;;;;;;5096861;28;20631;-78
2021/05/04 08:47:18;;;;;;;3.90;3.03;;;15.40;44.60;;;;;;5091507;28;21185;-80
2021/05/04 08:49:49;;;;;;;3.43;2.67;;;15.70;45.70;;;;;;5097894;28;21533;-79
2021/05/04 08:52:17;;;;;;;3.37;2.50;;;15.80;46.00;;;;;;5091485;28;20856;-79
2021/05/04 08:54:44;;;;;;;2.50;2.23;;;16.00;45.50;;;;;;5094649;28;20627;-78
2021/05/04 08:57:12;;;;;;;2.80;2.43;;;15.90;44.40;;;;;;5090756;28;20632;-79
2021/05/04 08:59:39;;;;;;;4.13;2.30;;;15.80;44.40;;;;;;5093792;28;20670;-79
2021/05/04 09:02:06;;;;;;;3.67;2.50;;;16.10;45.30;;;;;;5093288;28;20667;-81
2021/05/04 09:04:37;;;;;;;2.90;2.70;;;16.50;45.80;;;;;;5107250;28;20703;-79
2021/05/04 09:07:20;;;;;;;2.70;2.50;;;16.30;44.30;;;;;;5103251;28;20703;-79
2021/05/04 09:10:20;;;;;;;2.90;2.30;;;16.30;44.60;;;;;;5102969;28;20626;-81
2021/05/04 09:12:52;;;;;;;2.70;2.40;;;16.50;44.10;;;;;;5094342;28;21180;-80
2021/05/04 09:15:41;;;;;;;2.70;2.27;;;16.50;44.40;;;;;;5101751;28;20637;-80
2021/05/04 09:18:34;;;;;;;2.80;2.60;;;16.60;44.10;;;;;;5093438;28;21224;-80
2021/05/04 09:21:03;;;;;;;6.70;2.57;;;16.50;44.00;;;;;;5093662;28;20797;-79
2021/05/04 09:23:30;;;;;;;2.13;2.03;;;16.30;44.10;;;;;;5087471;28;20656;-80
2021/05/04 09:25:57;;;;;;;3.57;2.43;;;16.10;44.30;;;;;;5091906;28;20612;-80
2021/05/04 09:28:23;;;;;;;2.63;2.20;;;16.00;43.80;;;;;;5098991;28;20632;-80
2021/05/04 09:30:52;;;;;;;2.20;2.00;;;16.10;44.20;;;;;;5097442;28;21228;-80
2021/05/04 09:33:19;;;;;;;3.33;3.13;;;16.30;43.70;;;;;;5109021;28;20634;-80
2021/05/04 09:35:46;;;;;;;2.33;2.03;;;16.30;44.20;;;;;;5109722;28;20634;-82
2021/05/04 09:38:13;;;;;;;3.83;2.77;;;16.30;43.80;;;;;;5102311;28;20656;-82
2021/05/04 09:40:42;;;;;;;4.00;2.23;;;16.30;43.60;;;;;;5105474;28;20662;-80
2021/05/04 09:43:11;;;;;;;2.93;1.97;;;16.20;43.50;;;;;;5090631;28;20686;-82
2021/05/04 09:45:41;;;;;;;2.57;2.47;;;16.20;43.90;;;;;;5101934;28;20702;-81
2021/05/04 09:48:09;;;;;;;3.00;2.60;;;16.30;44.00;;;;;;5098449;28;20642;-81
2021/05/04 09:50:54;;;;;;;2.63;2.43;;;16.30;44.40;;;;;;5099166;28;21183;-82
2021/05/04 09:53:24;;;;;;;3.07;2.83;;;16.50;44.00;;;;;;5099023;28;20635;-82
2021/05/04 09:55:54;;;;;;;5.07;2.50;;;16.70;43.90;;;;;;5091157;28;21196;-82
2021/05/04 09:58:34;;;;;;;4.97;2.67;;;16.70;43.50;;;;;;5089889;28;20996;-80
2021/05/04 10:01:02;;;;;;;2.60;2.40;;;16.30;43.10;;;;;;5095810;28;20646;-80
2021/05/04 10:03:29;;;;;;;2.70;2.40;;;16.50;43.80;;;;;;5096675;28;20945;-80
2021/05/04 10:05:59;;;;;;;3.43;2.00;;;16.40;43.40;;;;;;5106754;28;20616;-80
2021/05/04 10:08:28;;;;;;;2.70;2.27;;;16.50;43.40;;;;;;5107033;28;20612;-80
2021/05/04 10:10:58;;;;;;;2.77;2.57;;;16.40;43.80;;;;;;5093551;28;20628;-80
2021/05/04 10:13:30;;;;;;;2.47;2.27;;;16.60;44.20;;;;;;5103044;28;20628;-81
2021/05/04 10:15:58;;;;;;;5.83;2.77;;;16.90;42.70;;;;;;5108371;28;20642;-80
2021/05/04 10:18:25;;;;;;;2.03;1.93;;;17.00;43.20;;;;;;5108674;28;20651;-80
2021/05/04 10:20:53;;;;;;;3.60;2.50;;;17.20;42.90;;;;;;5098810;28;20635;-80
2021/05/04 10:23:21;;;;;;;3.73;3.10;;;17.30;42.40;;;;;;5098765;28;20718;-81
2021/05/04 10:25:50;;;;;;;2.60;2.40;;;17.40;43.30;;;;;;5100613;28;20660;-80
2021/05/04 10:28:19;;;;;;;2.50;2.30;;;17.40;42.50;;;;;;5100228;28;20657;-80
2021/05/04 10:30:46;;;;;;;3.47;3.13;;;17.40;42.90;;;;;;5097265;28;20650;-81
2021/05/04 10:33:31;;;;;;;2.40;2.00;;;17.60;42.40;;;;;;5105191;28;20620;-80
2021/05/04 10:35:57;;;;;;;2.50;2.30;;;17.70;42.00;;;;;;5093843;28;20739;-81
2021/05/04 10:38:24;;;;;;;3.00;2.53;;;17.60;42.00;;;;;;5098560;28;21227;-80
2021/05/04 10:41:04;;;;;;;2.70;2.50;;;17.30;41.40;;;;;;5105593;28;21175;-80
2021/05/04 10:43:42;;;;;;;4.50;1.90;;;17.20;42.50;;;;;;5109804;28;20623;-81
2021/05/04 10:46:30;;;;;;;3.20;2.63;;;17.10;42.90;;;;;;5094322;28;20611;-80
2021/05/04 10:48:56;;;;;;;2.37;2.17;;;17.00;43.00;;;;;;5102458;28;20637;-80
2021/05/04 10:51:42;;;;;;;2.60;2.40;;;17.50;43.70;;;;;;5097367;28;21219;-79
2021/05/04 10:54:09;;;;;;;2.50;2.40;;;17.40;42.60;;;;;;5100813;28;20626;-81
2021/05/04 10:56:38;;;;;;;2.60;2.40;;;17.60;43.30;;;;;;5093982;28;20649;-81
2021/05/04 10:59:06;;;;;;;2.87;2.67;;;17.60;42.50;;;;;;5098696;28;20625;-80
2021/05/04 11:01:32;;;;;;;2.63;2.23;;;17.60;42.70;;;;;;5110825;28;20685;-80
2021/05/04 11:04:00;;;;;;;2.63;2.43;;;17.60;41.70;;;;;;5105559;28;20626;-81
2021/05/04 11:06:47;;;;;;;5.43;2.60;;;17.60;42.10;;;;;;5093053;28;20600;-80
2021/05/04 11:09:16;;;;;;;2.57;2.37;;;17.90;43.10;;;;;;5092308;28;21162;-80
2021/05/04 11:11:46;;;;;;;3.33;2.60;;;18.30;42.40;;;;;;5100033;28;20621;-80
2021/05/04 11:14:30;;;;;;;8.80;3.00;;;18.10;40.70;;;;;;5103668;28;20630;-80
2021/05/04 11:17:21;;;;;;;3.00;2.33;;;17.50;40.90;;;;;;5105828;28;21309;-79
2021/05/04 11:19:48;;;;;;;2.90;2.70;;;17.40;41.80;;;;;;5092780;28;20629;-81
2021/05/04 11:22:20;;;;;;;3.27;2.40;;;17.90;42.80;;;;;;5112819;28;21244;-79
2021/05/04 11:24:49;;;;;;;3.30;3.00;;;18.30;42.00;;;;;;5102584;28;21248;-79
2021/05/04 11:27:24;;;;;;;4.40;2.43;;;18.50;40.50;;;;;;5093889;28;20632;-80
2021/05/04 11:29:54;;;;;;;2.10;1.97;;;18.40;40.60;;;;;;5110818;28;20625;-79
2021/05/04 11:32:23;;;;;;;2.70;2.50;;;18.70;41.50;;;;;;5110435;28;20616;-80
2021/05/04 11:34:58;;;;;;;3.00;2.00;;;18.40;40.90;;;;;;5104867;28;20616;-79
2021/05/04 11:37:44;;;;;;;3.50;2.60;;;17.90;41.30;;;;;;5112147;28;21176;-79
2021/05/04 11:40:19;;;;;;;2.67;2.47;;;17.80;41.80;;;;;;5096549;28;20675;-80
2021/05/04 11:42:48;;;;;;;2.73;2.23;;;17.60;42.60;;;;;;5092625;28;20601;-80
2021/05/04 11:45:17;;;;;;;2.70;2.50;;;17.70;41.30;;;;;;5105780;28;20679;-80
2021/05/04 11:47:44;;;;;;;4.07;2.13;;;18.40;42.50;;;;;;5112670;28;20611;-80
2021/05/04 11:50:13;;;;;;;7.73;2.67;;;18.70;40.80;;;;;;5103879;28;20646;-79
2021/05/04 11:52:42;;;;;;;2.70;2.37;;;19.00;41.50;;;;;;5113511;28;20629;-81
2021/05/04 11:55:20;;;;;;;2.83;2.63;;;18.50;40.60;;;;;;5110210;28;20622;-80
2021/05/04 11:57:48;;;;;;;3.53;3.23;;;18.70;40.60;;;;;;5111663;28;20658;-80
2021/05/04 12:00:21;;;;;;;2.87;2.30;;;20.10;40.40;;;;;;5094386;28;20637;-81
2021/05/04 12:02:48;;;;;;;5.33;2.30;;;20.00;39.90;;;;;;5092373;28;20633;-79
2021/05/04 12:05:23;;;;;;;5.13;2.40;;;19.40;39.00;;;;;;5105554;28;20631;-79
2021/05/04 12:07:51;;;;;;;2.80;2.10;;;19.40;39.30;;;;;;5093164;28;20627;-80
2021/05/04 12:10:39;;;;;;;2.97;2.40;;;20.10;39.00;;;;;;5099666;28;20946;-80
2021/05/04 12:13:08;;;;;;;2.00;1.90;;;20.20;39.10;;;;;;5094969;28;21382;-80
2021/05/04 12:15:39;;;;;;;3.57;2.33;;;19.70;40.50;;;;;;5095857;28;20612;-80
2021/05/04 12:18:12;;;;;;;2.50;2.30;;;18.60;40.60;;;;;;5094093;28;20746;-79
2021/05/04 12:20:42;;;;;;;3.17;2.53;;;17.70;42.20;;;;;;5078610;28;21460;-80
2021/05/04 12:23:11;;;;;;;3.67;2.30;;;17.30;43.30;;;;;;5075193;28;20637;-81
2021/05/04 12:25:51;;;;;;;2.90;2.70;;;17.00;43.80;;;;;;5076652;28;20621;-79
2021/05/04 12:28:19;;;;;;;2.90;2.70;;;16.90;44.90;;;;;;5107696;28;20611;-79
2021/05/04 12:30:48;;;;;;;2.80;2.60;;;16.80;45.30;;;;;;5093520;28;20656;-79
2021/05/04 12:33:17;;;;;;;3.40;2.70;;;17.00;45.50;;;;;;5106558;28;20635;-79
2021/05/04 12:35:52;;;;;;;2.70;2.50;;;17.10;46.50;;;;;;5099180;28;20723;-80
2021/05/04 12:38:22;;;;;;;2.23;2.03;;;17.30;46.80;;;;;;5090986;28;20643;-79
2021/05/04 12:40:54;;;;;;;3.13;2.53;;;17.40;46.50;;;;;;5092041;28;20970;-81
2021/05/04 12:43:24;;;;;;;2.50;2.30;;;17.30;46.30;;;;;;5091677;28;20676;-79
2021/05/04 12:46:15;;;;;;;2.30;2.20;;;17.80;47.20;;;;;;5096103;28;20643;-79
2021/05/04 12:48:43;;;;;;;9.83;5.03;;;18.30;46.20;;;;;;5101945;28;20628;-78
2021/05/04 12:51:12;;;;;;;2.87;2.67;;;17.30;46.50;;;;;;5097228;28;20627;-79
2021/05/04 12:53:40;;;;;;;2.83;2.10;;;17.50;47.70;;;;;;5101815;28;20619;-79
2021/05/04 12:56:18;;;;;;;2.17;2.07;;;17.80;48.40;;;;;;5091996;28;20636;-79
2021/05/04 12:58:59;;;;;;;2.83;2.63;;;17.70;48.10;;;;;;5110637;28;20683;-79